Time;durP1;ratioP1;P1;durP2;ratioP2;P2;SDS_P1;SDS_P2;PMS_P1;PMS_P2;Temp;Humidity;BMP_temperature;BMP_pressure;BME280_temperature;BME280_humidity;BME280_pressure;Samples;Min_cycle;Max_cycle;Signal;HPM_P1;HPM_P2
2022/06/03 00:02:14;;;;;;;1.45;1.08;;;14.10;55.00;;;;;;4987524;28;20411;-73
2022/06/03 00:05:00;;;;;;;2.70;0.90;;;14.00;55.30;;;;;;4971809;28;20033;-72
2022/06/03 00:08:02;;;;;;;0.70;0.70;;;14.00;55.20;;;;;;4994133;28;20053;-72
2022/06/03 00:10:45;;;;;;;2.08;0.90;;;14.00;55.70;;;;;;4986318;28;20030;-72
2022/06/03 00:13:14;;;;;;;2.10;0.88;;;13.90;55.70;;;;;;4996866;28;20048;-72
2022/06/03 00:16:08;;;;;;;1.40;0.80;;;13.90;55.30;;;;;;4996560;28;20037;-73
2022/06/03 00:18:40;;;;;;;0.75;0.75;;;13.90;55.90;;;;;;4950165;28;20053;-73
2022/06/03 00:21:09;;;;;;;0.70;0.70;;;13.90;55.80;;;;;;4992891;28;20027;-73
2022/06/03 00:24:07;;;;;;;1.55;0.98;;;13.80;55.80;;;;;;4996471;28;21463;-72
2022/06/03 00:26:54;;;;;;;2.15;0.80;;;13.80;56.30;;;;;;4988124;28;20068;-73
2022/06/03 00:29:34;;;;;;;1.08;0.70;;;13.80;56.10;;;;;;4996243;28;20034;-73
2022/06/03 00:32:19;;;;;;;0.95;0.70;;;13.70;56.30;;;;;;4984838;28;20092;-73
2022/06/03 00:35:11;;;;;;;1.00;0.82;;;13.70;56.50;;;;;;4979370;28;20047;-72
2022/06/03 00:37:47;;;;;;;;;;;13.60;56.80;;;;;;4977209;28;20037;-73
2022/06/03 00:40:39;;;;;;;0.75;0.75;;;13.60;56.00;;;;;;4993552;28;20052;-72
2022/06/03 00:43:19;;;;;;;0.85;0.80;;;13.60;56.30;;;;;;4982912;28;20041;-73
2022/06/03 00:45:57;;;;;;;1.10;0.90;;;13.50;56.40;;;;;;4997351;28;20041;-73
2022/06/03 00:48:36;;;;;;;0.80;0.80;;;13.50;56.90;;;;;;4986922;28;20037;-72
2022/06/03 00:51:11;;;;;;;1.40;0.95;;;13.40;56.80;;;;;;5011154;28;20071;-73
2022/06/03 00:53:43;;;;;;;0.85;0.85;;;13.40;57.50;;;;;;5006934;28;20085;-73
2022/06/03 00:56:16;;;;;;;;;;;13.40;57.20;;;;;;4997981;28;20949;-73
2022/06/03 00:58:52;;;;;;;1.17;0.93;;;13.40;56.80;;;;;;4997843;28;19967;-72
2022/06/03 01:01:24;;;;;;;1.55;0.80;;;13.30;57.00;;;;;;5018737;28;20030;-72
2022/06/03 01:04:11;;;;;;;1.27;1.10;;;13.30;57.30;;;;;;4988578;28;20064;-73
2022/06/03 01:06:51;;;;;;;1.45;0.90;;;13.30;57.40;;;;;;4992270;28;20524;-72
2022/06/03 01:09:22;;;;;;;0.95;0.80;;;13.30;57.90;;;;;;4980932;28;20045;-73
2022/06/03 01:12:15;;;;;;;1.13;0.90;;;13.30;57.80;;;;;;5003540;28;20112;-72
2022/06/03 01:15:02;;;;;;;0.88;0.70;;;13.20;58.10;;;;;;4991733;28;20030;-72
2022/06/03 01:18:04;;;;;;;1.00;0.90;;;13.20;58.10;;;;;;4997466;28;20053;-72
2022/06/03 01:20:44;;;;;;;1.38;0.77;;;13.20;58.40;;;;;;4997485;28;20040;-72
2022/06/03 01:23:28;;;;;;;0.95;0.90;;;13.20;58.30;;;;;;4992371;28;20513;-72
2022/06/03 01:25:56;;;;;;;0.85;0.85;;;13.20;58.60;;;;;;4988722;28;20072;-72
2022/06/03 01:28:46;;;;;;;3.58;1.00;;;13.10;58.10;;;;;;5004616;28;20104;-73
2022/06/03 01:31:24;;;;;;;3.10;1.08;;;13.10;59.00;;;;;;4996331;28;20497;-73
2022/06/03 01:33:58;;;;;;;0.80;0.80;;;13.10;58.70;;;;;;5013619;28;20029;-72
2022/06/03 01:36:42;;;;;;;1.02;0.80;;;13.10;58.90;;;;;;5013278;28;20041;-72
2022/06/03 01:39:29;;;;;;;1.23;0.80;;;13.10;59.40;;;;;;4992579;28;20454;-73
2022/06/03 01:42:32;;;;;;;2.13;1.13;;;13.10;59.60;;;;;;4988708;28;20529;-72
2022/06/03 01:45:22;;;;;;;1.63;0.80;;;13.10;59.70;;;;;;5001978;28;20414;-73
2022/06/03 01:48:02;;;;;;;0.90;0.90;;;13.10;60.00;;;;;;4991928;28;20050;-72
2022/06/03 01:51:08;;;;;;;1.23;0.90;;;13.00;59.50;;;;;;4996696;28;20044;-73
2022/06/03 01:53:54;;;;;;;1.50;0.80;;;13.00;59.80;;;;;;4961683;28;20125;-73
2022/06/03 01:56:20;;;;;;;2.13;1.10;;;13.00;59.70;;;;;;4998182;28;20025;-73
2022/06/03 01:58:59;;;;;;;1.17;0.95;;;13.00;59.30;;;;;;4997691;28;20031;-74
2022/06/03 02:01:42;;;;;;;1.10;1.00;;;13.00;60.00;;;;;;4968395;28;20037;-72
2022/06/03 02:04:32;;;;;;;1.98;0.90;;;13.00;60.20;;;;;;5009923;28;20672;-73
2022/06/03 02:07:22;;;;;;;3.00;1.02;;;12.90;60.00;;;;;;4960358;28;20054;-72
2022/06/03 02:09:54;;;;;;;0.85;0.85;;;13.00;59.90;;;;;;4980792;28;20034;-73
2022/06/03 02:12:29;;;;;;;0.90;0.90;;;12.90;59.80;;;;;;5008423;28;20038;-73
2022/06/03 02:15:04;;;;;;;1.30;1.15;;;12.90;60.00;;;;;;4995920;28;20449;-72
2022/06/03 02:18:10;;;;;;;0.80;0.80;;;12.90;60.20;;;;;;4995387;28;20125;-72
2022/06/03 02:21:05;;;;;;;0.75;0.73;;;12.90;60.20;;;;;;4929912;28;20031;-73
2022/06/03 02:23:33;;;;;;;1.38;1.00;;;12.90;60.60;;;;;;4909800;28;20078;-74
2022/06/03 02:26:21;;;;;;;0.98;0.88;;;12.90;60.20;;;;;;4943430;28;20031;-73
2022/06/03 02:32:24;;;;;;;1.60;1.10;;;12.80;60.80;;;;;;4928054;28;20184;-72
2022/06/03 02:34:50;;;;;;;1.45;0.95;;;12.80;60.30;;;;;;4933266;28;20818;-73
2022/06/03 02:37:36;;;;;;;1.10;1.00;;;12.80;60.30;;;;;;4951227;28;20043;-73
2022/06/03 02:40:26;;;;;;;1.00;0.90;;;12.80;60.90;;;;;;4943461;28;20042;-73
2022/06/03 02:43:28;;;;;;;1.00;0.90;;;12.80;61.10;;;;;;4952748;28;20035;-72
2022/06/03 02:46:13;;;;;;;1.67;1.00;;;12.70;61.10;;;;;;4959277;28;20146;-73
2022/06/03 02:49:05;;;;;;;1.42;1.10;;;12.70;60.70;;;;;;4958085;28;20120;-73
2022/06/03 02:51:51;;;;;;;1.33;1.00;;;12.60;61.20;;;;;;4952642;28;20046;-72
2022/06/03 02:54:25;;;;;;;1.98;0.88;;;12.60;61.10;;;;;;4973739;28;20038;-73
2022/06/03 02:57:14;;;;;;;0.93;0.85;;;12.60;61.20;;;;;;5011741;28;20569;-72
2022/06/03 02:59:52;;;;;;;0.98;0.88;;;12.50;61.80;;;;;;4976752;28;20045;-73
2022/06/03 03:02:38;;;;;;;2.75;1.08;;;12.50;61.40;;;;;;4997362;28;20205;-72
2022/06/03 03:05:22;;;;;;;1.10;1.00;;;12.50;61.50;;;;;;4982667;28;20537;-74
2022/06/03 03:07:58;;;;;;;1.38;1.00;;;12.40;61.40;;;;;;5018709;28;20576;-72
2022/06/03 03:10:43;;;;;;;1.95;0.88;;;12.40;61.90;;;;;;5000933;28;20045;-72
2022/06/03 03:13:10;;;;;;;2.05;0.85;;;12.40;62.00;;;;;;4989257;28;20033;-73
2022/06/03 03:16:02;;;;;;;1.08;0.90;;;12.40;61.80;;;;;;5003563;28;20034;-73
2022/06/03 03:18:44;;;;;;;1.02;0.93;;;12.40;62.10;;;;;;4982662;28;20567;-72
2022/06/03 03:21:37;;;;;;;2.13;1.10;;;12.40;62.10;;;;;;5005939;28;20044;-72
2022/06/03 03:24:27;;;;;;;2.45;1.27;;;12.30;62.30;;;;;;4993260;28;20144;-72
2022/06/03 03:26:54;;;;;;;1.63;1.00;;;12.30;62.20;;;;;;4994355;28;20201;-74
2022/06/03 03:29:41;;;;;;;1.40;1.08;;;12.30;62.00;;;;;;4978114;28;20110;-73
2022/06/03 03:32:27;;;;;;;1.30;1.20;;;12.30;62.80;;;;;;4995781;28;20080;-72
2022/06/03 03:35:03;;;;;;;2.58;1.10;;;12.30;62.40;;;;;;4996672;28;20537;-72
2022/06/03 03:37:57;;;;;;;1.10;1.00;;;12.20;62.60;;;;;;4998322;28;20048;-73
2022/06/03 03:40:50;;;;;;;1.15;1.00;;;12.20;63.10;;;;;;4994290;28;20045;-73
2022/06/03 03:43:36;;;;;;;3.58;1.45;;;12.20;63.10;;;;;;4995669;28;20576;-73
2022/06/03 03:46:13;;;;;;;1.27;0.90;;;12.20;63.10;;;;;;4980956;28;20068;-73
2022/06/03 03:48:56;;;;;;;0.80;0.80;;;12.10;63.40;;;;;;4996227;28;20038;-73
2022/06/03 03:51:51;;;;;;;1.38;0.88;;;12.00;63.30;;;;;;5004489;28;20034;-73
2022/06/03 03:54:35;;;;;;;2.63;1.10;;;12.10;63.60;;;;;;4977330;28;20038;-73
2022/06/03 03:57:38;;;;;;;3.67;1.13;;;12.00;63.80;;;;;;4986517;28;20163;-73
2022/06/03 04:00:24;;;;;;;1.33;1.00;;;12.00;63.80;;;;;;5026046;28;20123;-72
2022/06/03 04:03:11;;;;;;;1.00;0.90;;;12.00;63.80;;;;;;5012868;28;20030;-73
2022/06/03 04:06:08;;;;;;;3.97;1.20;;;12.00;63.70;;;;;;5000525;28;20934;-74
2022/06/03 04:08:55;;;;;;;1.00;0.90;;;12.00;64.10;;;;;;4962988;28;20042;-72
2022/06/03 04:11:36;;;;;;;3.33;1.08;;;12.00;64.20;;;;;;4996188;28;20117;-73
2022/06/03 04:14:27;;;;;;;0.82;0.82;;;11.90;63.70;;;;;;4987453;28;20099;-73
2022/06/03 04:17:16;;;;;;;1.48;1.00;;;11.90;64.30;;;;;;4983354;28;20050;-74
2022/06/03 04:20:00;;;;;;;2.55;1.13;;;12.00;64.30;;;;;;4988876;28;20056;-75
2022/06/03 04:22:47;;;;;;;1.50;1.05;;;12.00;64.40;;;;;;5002152;28;20037;-73
2022/06/03 04:25:51;;;;;;;2.38;1.17;;;12.00;64.00;;;;;;4994261;28;20040;-73
2022/06/03 04:28:23;;;;;;;1.10;1.00;;;12.10;64.80;;;;;;4990998;28;20041;-72
2022/06/03 04:31:22;;;;;;;1.63;1.48;;;12.10;64.40;;;;;;5005411;28;20144;-71
2022/06/03 04:33:52;;;;;;;1.17;0.77;;;12.10;64.30;;;;;;4993963;28;20108;-71
2022/06/03 04:36:39;;;;;;;1.02;0.90;;;12.10;64.00;;;;;;4975338;28;20049;-71
2022/06/03 04:39:26;;;;;;;1.20;1.10;;;12.20;64.30;;;;;;5001782;28;20451;-71
2022/06/03 04:42:13;;;;;;;1.10;1.00;;;12.20;64.80;;;;;;4999365;28;20141;-72
2022/06/03 04:44:57;;;;;;;1.50;1.40;;;12.30;64.60;;;;;;4988820;28;20196;-71
2022/06/03 04:48:00;;;;;;;3.42;1.30;;;12.30;64.20;;;;;;4991952;28;20080;-71
2022/06/03 04:50:47;;;;;;;1.73;1.10;;;12.40;65.10;;;;;;4977427;28;20041;-71
2022/06/03 04:53:24;;;;;;;1.30;1.13;;;12.40;65.10;;;;;;4999989;28;20038;-71
2022/06/03 04:56:23;;;;;;;1.95;1.42;;;12.50;64.40;;;;;;4986815;28;20046;-71
2022/06/03 04:59:07;;;;;;;4.93;2.50;;;12.60;65.00;;;;;;4996637;28;20087;-71
2022/06/03 05:02:18;;;;;;;2.08;1.70;;;12.60;64.70;;;;;;4984447;28;20456;-72
2022/06/03 05:05:08;;;;;;;3.45;1.80;;;12.70;64.60;;;;;;4970211;28;20524;-72
2022/06/03 05:07:44;;;;;;;3.38;1.75;;;12.80;64.90;;;;;;4996686;28;20084;-72
2022/06/03 05:10:55;;;;;;;1.60;1.50;;;12.90;64.40;;;;;;4995712;28;20026;-71
2022/06/03 05:13:39;;;;;;;1.25;1.15;;;12.90;64.70;;;;;;5016950;28;20592;-72
2022/06/03 05:16:10;;;;;;;1.52;1.10;;;13.10;64.30;;;;;;4998356;28;20053;-72
2022/06/03 05:19:02;;;;;;;1.80;1.25;;;13.20;63.90;;;;;;4993790;28;20737;-72
2022/06/03 05:22:08;;;;;;;1.08;0.95;;;13.20;63.80;;;;;;4996764;28;20044;-72
2022/06/03 05:24:39;;;;;;;1.40;1.00;;;13.40;63.90;;;;;;4994567;28;20037;-72
2022/06/03 05:27:29;;;;;;;1.00;1.00;;;13.60;63.40;;;;;;5007586;28;20062;-73
2022/06/03 05:30:22;;;;;;;4.75;1.23;;;13.60;63.20;;;;;;5004199;28;20045;-72
2022/06/03 05:33:06;;;;;;;1.48;0.98;;;13.70;63.20;;;;;;4991868;28;20050;-72
2022/06/03 05:35:44;;;;;;;2.30;1.13;;;13.80;62.90;;;;;;4979170;28;20043;-71
2022/06/03 05:38:30;;;;;;;4.72;1.10;;;13.90;62.90;;;;;;5001085;28;20757;-73
2022/06/03 05:40:59;;;;;;;2.50;1.20;;;14.00;62.60;;;;;;4991695;28;20065;-71
2022/06/03 05:43:38;;;;;;;3.17;1.10;;;14.10;62.60;;;;;;4993887;28;20034;-72
2022/06/03 05:46:15;;;;;;;2.67;0.98;;;14.20;62.40;;;;;;4981271;28;20056;-72
2022/06/03 05:48:45;;;;;;;6.75;1.25;;;14.30;62.10;;;;;;4986625;28;20037;-72
2022/06/03 05:51:35;;;;;;;2.80;1.10;;;14.40;62.00;;;;;;4993308;28;20437;-71
2022/06/03 05:54:12;;;;;;;4.45;1.30;;;14.40;62.20;;;;;;4994470;28;20546;-71
2022/06/03 05:56:58;;;;;;;2.88;1.30;;;14.50;61.70;;;;;;5006023;28;20096;-72
2022/06/03 05:59:23;;;;;;;2.20;1.05;;;14.60;61.80;;;;;;4975428;28;20121;-71
2022/06/03 06:02:13;;;;;;;1.02;1.02;;;14.70;61.40;;;;;;4997810;28;20851;-72
2022/06/03 06:05:06;;;;;;;1.25;1.15;;;14.80;61.30;;;;;;5016359;28;20037;-71
2022/06/03 06:07:44;;;;;;;1.83;0.98;;;14.90;61.20;;;;;;5025542;28;20053;-71
2022/06/03 06:10:27;;;;;;;1.85;1.08;;;15.00;61.00;;;;;;5025186;28;20026;-71
2022/06/03 06:13:01;;;;;;;1.83;0.90;;;15.10;60.60;;;;;;5010928;28;20045;-71
2022/06/03 06:15:52;;;;;;;1.02;0.93;;;15.20;60.50;;;;;;4999498;28;20046;-71
2022/06/03 06:18:27;;;;;;;;;;;15.40;60.50;;;;;;5011810;28;20422;-72
2022/06/03 06:21:03;;;;;;;1.65;1.10;;;15.40;60.00;;;;;;4997059;28;19945;-72
2022/06/03 06:23:39;;;;;;;7.50;1.20;;;15.50;59.80;;;;;;4994910;28;20041;-72
2022/06/03 06:26:24;;;;;;;0.80;0.80;;;15.70;59.80;;;;;;4996848;28;20046;-72
2022/06/03 06:28:55;;;;;;;3.22;0.82;;;15.80;59.50;;;;;;4983569;28;20037;-72
2022/06/03 06:31:32;;;;;;;0.98;0.80;;;15.90;59.40;;;;;;5006245;28;20129;-72
2022/06/03 06:34:24;;;;;;;0.93;0.77;;;16.00;59.30;;;;;;4989691;28;20049;-71
2022/06/03 06:37:17;;;;;;;1.00;1.00;;;16.10;59.10;;;;;;4987500;28;20631;-72
2022/06/03 06:40:01;;;;;;;1.52;1.00;;;16.30;59.70;;;;;;4988159;28;20100;-73
2022/06/03 06:42:45;;;;;;;2.28;0.90;;;16.40;58.80;;;;;;4989605;28;20038;-71
2022/06/03 06:45:20;;;;;;;1.42;0.80;;;16.60;58.60;;;;;;4979158;28;20026;-72
2022/06/03 06:48:03;;;;;;;3.88;1.25;;;16.70;58.30;;;;;;4993697;28;20057;-72
2022/06/03 06:50:49;;;;;;;2.47;1.25;;;16.90;58.20;;;;;;4973348;28;20042;-72
2022/06/03 06:53:41;;;;;;;1.08;1.00;;;17.10;57.90;;;;;;4987209;28;20041;-73
2022/06/03 06:56:09;;;;;;;5.63;1.08;;;17.20;57.50;;;;;;4985667;28;20552;-72
2022/06/03 06:58:45;;;;;;;1.38;1.10;;;17.40;57.20;;;;;;5006319;28;20040;-72
2022/06/03 07:01:15;;;;;;;1.23;1.00;;;17.50;57.00;;;;;;4998402;28;20482;-72
2022/06/03 07:03:54;;;;;;;1.92;1.10;;;17.70;56.90;;;;;;5014206;28;20034;-72
2022/06/03 07:06:23;;;;;;;5.18;1.00;;;17.80;56.40;;;;;;5003853;28;20033;-72
2022/06/03 07:08:52;;;;;;;0.82;0.82;;;17.90;56.30;;;;;;5003028;28;20113;-72
2022/06/03 07:11:22;;;;;;;1.02;1.00;;;18.10;56.00;;;;;;5005366;28;20046;-72
2022/06/03 07:13:53;;;;;;;1.13;1.00;;;18.20;55.80;;;;;;4985513;28;20052;-72
2022/06/03 07:22:14;;;;;;;2.03;1.00;;;18.70;55.10;;;;;;5002800;28;20040;-73
2022/06/03 07:24:48;;;;;;;2.10;1.23;;;18.90;54.80;;;;;;5000688;28;20425;-74
2022/06/03 07:27:17;;;;;;;1.95;1.10;;;19.10;54.60;;;;;;4988579;28;20045;-73
2022/06/03 07:29:46;;;;;;;1.00;0.95;;;19.30;54.40;;;;;;4995784;28;20069;-72
2022/06/03 07:32:18;;;;;;;1.55;1.08;;;19.40;54.10;;;;;;4976676;28;20045;-73
2022/06/03 07:34:56;;;;;;;1.00;0.90;;;19.60;53.80;;;;;;4974281;28;20120;-73
2022/06/03 07:37:28;;;;;;;0.90;0.90;;;19.70;53.40;;;;;;5009543;28;20033;-73
2022/06/03 07:40:16;;;;;;;1.25;1.10;;;19.80;53.30;;;;;;4998290;28;20034;-73
2022/06/03 07:42:48;;;;;;;2.22;1.00;;;19.90;53.70;;;;;;4974852;28;20037;-72
2022/06/03 07:45:38;;;;;;;3.50;0.98;;;20.00;53.00;;;;;;4997937;28;20062;-73
2022/06/03 07:48:06;;;;;;;1.20;0.88;;;20.20;52.70;;;;;;4970523;28;20061;-73
2022/06/03 07:50:34;;;;;;;2.38;1.10;;;20.30;52.70;;;;;;4979823;28;20025;-73
2022/06/03 07:52:59;;;;;;;4.03;1.10;;;20.50;52.40;;;;;;4986808;28;20041;-73
2022/06/03 07:55:26;;;;;;;1.30;1.20;;;20.70;52.30;;;;;;4996712;28;20037;-73
2022/06/03 07:57:55;;;;;;;2.45;1.63;;;20.90;52.10;;;;;;4974934;28;20044;-72
2022/06/03 08:00:21;;;;;;;2.35;1.05;;;21.10;51.90;;;;;;4987295;28;20120;-73
2022/06/03 08:02:47;;;;;;;2.63;0.90;;;21.20;51.70;;;;;;5024928;28;20038;-73
2022/06/03 08:05:16;;;;;;;2.25;1.00;;;21.40;51.40;;;;;;5005483;28;20038;-73
2022/06/03 08:13:14;;;;;;;1.08;0.80;;;21.90;50.80;;;;;;4992262;28;20044;-73
2022/06/03 08:15:54;;;;;;;1.30;1.20;;;22.10;50.40;;;;;;4979629;28;20026;-72
2022/06/03 08:18:21;;;;;;;2.75;1.10;;;22.20;50.10;;;;;;4977432;28;20104;-73
2022/06/03 08:20:48;;;;;;;2.53;0.95;;;22.40;50.00;;;;;;4982388;28;20177;-73
2022/06/03 08:23:15;;;;;;;1.20;1.10;;;22.50;49.80;;;;;;5006774;28;20116;-72
2022/06/03 08:25:42;;;;;;;1.52;1.23;;;22.70;49.70;;;;;;4980508;28;20034;-73
2022/06/03 08:28:09;;;;;;;2.17;1.23;;;22.90;49.40;;;;;;5010638;28;20042;-73
2022/06/03 08:30:34;;;;;;;1.13;1.02;;;23.10;49.20;;;;;;4974029;28;20033;-73
2022/06/03 08:33:08;;;;;;;1.30;1.20;;;23.20;48.90;;;;;;4979474;28;20030;-73
2022/06/03 08:35:41;;;;;;;1.15;1.00;;;23.40;48.60;;;;;;5012350;28;20052;-73
2022/06/03 08:38:29;;;;;;;2.25;1.30;;;23.60;48.20;;;;;;4980083;28;20034;-73
2022/06/03 08:41:16;;;;;;;1.73;1.10;;;23.70;47.70;;;;;;4988874;28;20030;-73
2022/06/03 08:43:47;;;;;;;1.55;1.35;;;23.90;47.70;;;;;;4995591;28;20113;-74
2022/06/03 08:46:15;;;;;;;3.25;1.40;;;24.10;47.40;;;;;;4995455;28;20513;-74
2022/06/03 08:48:42;;;;;;;7.03;3.65;;;24.30;47.30;;;;;;4981551;28;20113;-74
2022/06/03 08:51:50;;;;;;;5.07;1.80;;;24.50;47.20;;;;;;4988633;28;20105;-73
2022/06/03 08:54:59;;;;;;;2.28;1.20;;;24.70;46.60;;;;;;4986146;28;20052;-73
2022/06/03 08:57:33;;;;;;;3.38;1.42;;;25.00;45.90;;;;;;4996017;28;20034;-73
2022/06/03 09:00:07;;;;;;;4.20;1.25;;;25.20;46.00;;;;;;4993812;28;20145;-73
2022/06/03 09:02:44;;;;;;;3.45;1.38;;;25.40;45.60;;;;;;4996563;28;20037;-73
2022/06/03 09:05:31;;;;;;;2.10;1.30;;;25.50;45.70;;;;;;4990614;28;20103;-74
2022/06/03 09:08:07;;;;;;;1.48;1.20;;;25.80;45.30;;;;;;5002440;28;20037;-72
2022/06/03 09:10:43;;;;;;;4.15;1.85;;;26.00;45.40;;;;;;4978442;28;20048;-73
2022/06/03 09:13:40;;;;;;;2.83;1.67;;;26.20;45.10;;;;;;5008616;28;20512;-73
2022/06/03 09:16:06;;;;;;;2.58;1.70;;;26.40;44.80;;;;;;4990957;28;20054;-73
2022/06/03 09:18:34;;;;;;;1.48;1.33;;;26.60;44.90;;;;;;4972634;28;20061;-73
2022/06/03 09:21:06;;;;;;;14.30;3.53;;;26.80;44.40;;;;;;4981480;28;20034;-73
2022/06/03 09:23:54;;;;;;;4.32;2.30;;;26.90;44.10;;;;;;4970805;28;20034;-73
2022/06/03 09:26:31;;;;;;;5.82;2.25;;;27.20;43.50;;;;;;4985375;28;20125;-73
2022/06/03 09:28:57;;;;;;;3.60;1.90;;;27.30;43.40;;;;;;5008169;28;20038;-73
2022/06/03 09:31:23;;;;;;;6.20;2.90;;;27.40;43.40;;;;;;4979090;28;20042;-73
2022/06/03 09:33:48;;;;;;;4.30;1.60;;;27.50;43.40;;;;;;4997599;28;20550;-74
2022/06/03 09:36:17;;;;;;;20.48;7.03;;;27.60;43.10;;;;;;5005712;28;20049;-75
2022/06/03 09:38:56;;;;;;;4.95;1.70;;;27.70;42.90;;;;;;5013897;28;20061;-74
2022/06/03 09:41:26;;;;;;;2.97;1.35;;;27.90;43.00;;;;;;5003795;28;20104;-74
2022/06/03 09:43:53;;;;;;;4.10;1.42;;;28.10;42.70;;;;;;4985681;28;20056;-74
2022/06/03 09:46:19;;;;;;;1.77;1.30;;;28.30;42.60;;;;;;4994161;28;20562;-74
2022/06/03 09:48:44;;;;;;;6.40;1.55;;;28.40;42.30;;;;;;4996702;28;20161;-75
2022/06/03 09:51:25;;;;;;;1.90;1.30;;;28.50;42.00;;;;;;4991427;28;20033;-75
2022/06/03 09:53:51;;;;;;;2.40;1.20;;;28.70;41.80;;;;;;4987558;28;20434;-75
2022/06/03 09:56:22;;;;;;;1.75;1.10;;;29.00;41.80;;;;;;4983652;28;20038;-75
2022/06/03 09:58:49;;;;;;;1.83;1.42;;;29.20;41.60;;;;;;5008585;28;20045;-75
2022/06/03 10:01:14;;;;;;;4.88;1.80;;;29.40;41.50;;;;;;4990346;28;20117;-74
2022/06/03 10:03:40;;;;;;;6.72;2.47;;;29.60;41.30;;;;;;4974021;28;20617;-74
2022/06/03 10:06:42;;;;;;;2.45;1.50;;;29.60;40.90;;;;;;5003988;28;20131;-74
2022/06/03 10:14:19;;;;;;;38.33;13.18;;;29.90;40.70;;;;;;5003963;28;20092;-74
2022/06/03 10:16:45;;;;;;;6.85;2.28;;;30.10;40.70;;;;;;5000296;28;20046;-75
2022/06/03 10:19:10;;;;;;;2.53;1.55;;;30.20;40.60;;;;;;5019201;28;20485;-76
2022/06/03 10:21:37;;;;;;;2.35;1.30;;;30.30;40.40;;;;;;5012552;28;20049;-75
2022/06/03 10:24:04;;;;;;;1.80;1.40;;;30.50;40.30;;;;;;5007284;28;20065;-75
2022/06/03 10:26:43;;;;;;;3.72;1.13;;;30.70;40.00;;;;;;5010799;28;20509;-76
2022/06/03 10:29:17;;;;;;;2.40;1.70;;;30.80;39.20;;;;;;5007791;28;20029;-75
2022/06/03 10:31:47;;;;;;;1.83;1.30;;;30.80;39.40;;;;;;5006343;28;20038;-77
2022/06/03 10:34:17;;;;;;;3.95;2.03;;;31.00;39.60;;;;;;4990561;28;20045;-76
2022/06/03 10:36:44;;;;;;;3.38;1.58;;;31.20;39.50;;;;;;5003125;28;20347;-76
2022/06/03 10:39:14;;;;;;;1.35;1.23;;;31.30;39.10;;;;;;5006446;28;20046;-75
2022/06/03 10:41:43;;;;;;;1.40;1.30;;;31.50;38.70;;;;;;4989416;28;20035;-74
2022/06/03 10:44:13;;;;;;;2.92;1.42;;;31.60;38.50;;;;;;5026972;28;20037;-75
2022/06/03 10:46:50;;;;;;;;;;;31.80;38.30;;;;;;5005512;28;20078;-75
2022/06/03 10:49:16;;;;;;;2.78;1.55;;;31.90;38.30;;;;;;5006762;28;19921;-76
2022/06/03 11:02:47;;;;;;;3.17;1.77;;;32.90;37.30;;;;;;4982892;28;20065;-76
2022/06/03 11:05:29;;;;;;;2.58;1.35;;;33.10;37.40;;;;;;5006329;28;20054;-76
2022/06/03 11:08:03;;;;;;;4.90;1.60;;;33.20;37.20;;;;;;4999948;28;20034;-75
2022/06/03 11:10:40;;;;;;;1.65;1.20;;;33.30;36.90;;;;;;4985369;28;20030;-75
2022/06/03 11:13:07;;;;;;;2.80;1.27;;;33.50;37.00;;;;;;4983580;28;20046;-75
2022/06/03 11:15:36;;;;;;;6.57;3.13;;;33.70;36.80;;;;;;4976642;28;20038;-76
2022/06/03 11:18:12;;;;;;;3.65;1.58;;;33.90;36.70;;;;;;4989590;28;20080;-76
2022/06/03 11:20:39;;;;;;;3.00;1.35;;;33.90;35.70;;;;;;4994821;28;20663;-77
2022/06/03 11:23:09;;;;;;;4.68;1.40;;;33.90;36.20;;;;;;5002484;28;20095;-75
2022/06/03 11:25:37;;;;;;;2.50;1.13;;;33.80;36.10;;;;;;4998089;28;20037;-75
2022/06/03 11:28:15;;;;;;;3.40;1.38;;;33.80;36.30;;;;;;5029646;28;20037;-76
2022/06/03 11:31:09;;;;;;;3.67;1.20;;;34.00;36.20;;;;;;5019677;28;20389;-76
2022/06/03 11:33:43;;;;;;;1.23;1.13;;;34.20;35.80;;;;;;5016262;28;20497;-76
2022/06/03 11:36:20;;;;;;;2.47;1.10;;;34.30;36.00;;;;;;4997316;28;20038;-76
2022/06/03 11:38:50;;;;;;;2.50;1.20;;;34.40;35.50;;;;;;5001730;28;20062;-76
2022/06/03 11:41:26;;;;;;;2.05;1.10;;;34.60;35.30;;;;;;5002613;28;20058;-77
2022/06/03 11:43:58;;;;;;;2.63;1.63;;;34.60;34.80;;;;;;4986507;28;20048;-77
2022/06/03 11:46:35;;;;;;;1.55;1.30;;;34.70;34.60;;;;;;4995361;28;20069;-76
2022/06/03 11:49:01;;;;;;;2.83;1.35;;;34.70;34.70;;;;;;4982602;28;20042;-77
2022/06/03 11:51:27;;;;;;;1.83;1.30;;;34.80;34.90;;;;;;5020521;28;20095;-76
2022/06/03 11:53:52;;;;;;;2.22;1.30;;;35.00;34.70;;;;;;5012097;28;20411;-76
2022/06/03 11:56:26;;;;;;;4.15;1.13;;;35.10;34.80;;;;;;5026375;28;20038;-77
2022/06/03 11:59:10;;;;;;;2.75;1.50;;;35.10;34.60;;;;;;5030611;28;20042;-77
2022/06/03 12:01:50;;;;;;;1.40;1.30;;;35.20;34.10;;;;;;5005681;28;20117;-76
2022/06/03 12:04:38;;;;;;;3.50;1.30;;;35.20;33.40;;;;;;5036968;28;20033;-77
2022/06/03 12:07:53;;;;;;;1.67;1.25;;;35.10;33.70;;;;;;4999491;28;20166;-77
2022/06/03 12:10:35;;;;;;;2.38;0.98;;;35.10;32.80;;;;;;4995672;28;20050;-76
2022/06/03 12:13:18;;;;;;;2.75;1.25;;;35.00;33.80;;;;;;4998849;28;20031;-77
2022/06/03 12:15:58;;;;;;;2.00;1.08;;;35.00;33.70;;;;;;5001936;28;20037;-76
2022/06/03 12:18:34;;;;;;;1.20;0.93;;;35.10;33.80;;;;;;5013389;28;20052;-77
2022/06/03 12:21:01;;;;;;;2.45;1.10;;;35.10;33.80;;;;;;5012350;28;20034;-77
2022/06/03 12:23:26;;;;;;;1.45;1.35;;;35.30;34.10;;;;;;5025847;28;20049;-77
2022/06/03 12:25:52;;;;;;;2.05;1.50;;;35.30;33.90;;;;;;5004945;28;20064;-77
2022/06/03 12:28:22;;;;;;;4.47;1.45;;;35.30;33.90;;;;;;5006068;28;20049;-77
2022/06/03 12:30:49;;;;;;;1.35;1.20;;;35.30;34.00;;;;;;5020245;28;20053;-78
2022/06/03 12:33:22;;;;;;;1.85;1.25;;;35.50;34.00;;;;;;4999221;28;20039;-77
2022/06/03 12:35:48;;;;;;;1.67;1.50;;;35.50;33.30;;;;;;5003400;28;20142;-76
2022/06/03 12:38:19;;;;;;;7.10;1.30;;;35.60;33.50;;;;;;5016596;28;20049;-75
2022/06/03 12:40:47;;;;;;;2.45;1.35;;;35.50;33.20;;;;;;4996148;28;20068;-76
2022/06/03 12:43:28;;;;;;;1.50;1.33;;;35.50;33.10;;;;;;4982856;28;20057;-76
2022/06/03 12:46:08;;;;;;;1.80;1.33;;;35.50;32.30;;;;;;5029982;28;20446;-75
2022/06/03 12:48:46;;;;;;;4.43;1.33;;;35.30;32.50;;;;;;4981112;28;20040;-77
2022/06/03 12:51:22;;;;;;;3.90;1.35;;;35.20;33.00;;;;;;4998074;28;20033;-75
2022/06/03 12:53:48;;;;;;;1.67;1.27;;;35.10;33.00;;;;;;5002767;28;20042;-76
2022/06/03 12:56:33;;;;;;;1.60;1.10;;;35.00;33.30;;;;;;4995902;28;20040;-76
2022/06/03 12:59:30;;;;;;;1.50;1.27;;;34.90;32.90;;;;;;5002111;28;20049;-75
2022/06/03 13:02:01;;;;;;;2.08;1.40;;;34.80;33.20;;;;;;5034184;28;20026;-75
2022/06/03 13:04:43;;;;;;;1.48;1.38;;;34.80;33.40;;;;;;4998417;28;20188;-76
2022/06/03 13:07:26;;;;;;;4.78;1.63;;;34.90;33.50;;;;;;5026233;28;20414;-76
2022/06/03 13:09:53;;;;;;;3.95;1.27;;;35.00;33.40;;;;;;4998179;28;20023;-76
2022/06/03 13:12:27;;;;;;;1.98;1.88;;;35.20;33.40;;;;;;4974524;28;20046;-76
2022/06/03 13:14:52;;;;;;;1.25;1.17;;;35.30;33.20;;;;;;4996016;28;20088;-76
2022/06/03 13:17:55;;;;;;;1.48;1.38;;;35.30;33.20;;;;;;5000565;28;20690;-77
2022/06/03 13:20:32;;;;;;;1.48;1.38;;;35.40;32.90;;;;;;4991868;28;20165;-77
2022/06/03 13:22:58;;;;;;;1.67;1.45;;;35.60;32.60;;;;;;5004675;28;20048;-77
2022/06/03 13:25:25;;;;;;;3.85;1.70;;;35.70;32.80;;;;;;5000645;28;20034;-76
2022/06/03 13:28:12;;;;;;;2.25;1.45;;;35.70;32.80;;;;;;5014399;28;20056;-76
2022/06/03 13:30:37;;;;;;;2.55;1.48;;;35.90;32.20;;;;;;5003074;28;20030;-75
2022/06/03 13:33:19;;;;;;;1.40;1.30;;;36.00;32.70;;;;;;5008839;28;20045;-74
2022/06/03 13:35:59;;;;;;;2.10;1.55;;;36.10;32.40;;;;;;4995471;28;20046;-74
2022/06/03 13:38:27;;;;;;;1.80;1.25;;;36.10;32.00;;;;;;4998228;28;20048;-76
2022/06/03 13:44:16;;;;;;;2.17;1.42;;;35.90;32.40;;;;;;4971953;28;20044;-76
2022/06/03 13:46:42;;;;;;;2.42;1.40;;;35.80;32.50;;;;;;4995019;28;20042;-77
2022/06/03 13:49:27;;;;;;;2.17;1.20;;;35.80;32.70;;;;;;5012433;28;20048;-76
2022/06/03 13:52:01;;;;;;;1.58;1.23;;;35.80;32.40;;;;;;4988690;28;20120;-76
2022/06/03 13:54:33;;;;;;;1.25;1.20;;;35.80;32.80;;;;;;5011025;28;20049;-76
2022/06/03 13:57:21;;;;;;;2.28;1.50;;;35.80;32.60;;;;;;4993665;28;20101;-73
2022/06/03 13:59:46;;;;;;;3.60;1.52;;;35.80;32.40;;;;;;4993352;28;20466;-74
2022/06/03 14:02:19;;;;;;;1.48;1.38;;;35.70;32.60;;;;;;4976667;28;20767;-75
2022/06/03 14:05:09;;;;;;;1.65;1.27;;;35.70;32.50;;;;;;4995078;28;20145;-73
2022/06/03 14:08:01;;;;;;;3.88;1.50;;;35.70;32.50;;;;;;4979128;28;20042;-75
2022/06/03 14:10:27;;;;;;;1.98;1.20;;;35.60;32.40;;;;;;4980693;28;20053;-74
2022/06/03 14:13:02;;;;;;;2.38;1.45;;;35.60;32.60;;;;;;4976246;28;20034;-75
2022/06/03 14:15:50;;;;;;;2.58;1.33;;;35.60;32.50;;;;;;4994142;28;20037;-74
2022/06/03 14:18:43;;;;;;;1.92;1.25;;;35.50;32.10;;;;;;5007228;28;20425;-74
2022/06/03 14:21:09;;;;;;;1.25;1.15;;;35.40;32.10;;;;;;4991889;28;20039;-74
2022/06/03 14:23:37;;;;;;;4.28;1.50;;;35.40;32.40;;;;;;4982811;28;20099;-74